Time;durP1;ratioP1;P1;durP2;ratioP2;P2;SDS_P1;SDS_P2;PMS_P1;PMS_P2;Temp;Humidity;BMP_temperature;BMP_pressure;BME280_temperature;BME280_humidity;BME280_pressure;Samples;Min_cycle;Max_cycle;Signal;HPM_P1;HPM_P2
2022/12/27 00:00:24;;;;;;;14.23;5.60;;;;;;;1.86;100.00;161057.94;5051874;28;20026;-60
2022/12/27 00:02:50;;;;;;;12.23;6.03;;;;;;;1.85;100.00;161053.94;5050377;28;20128;-60
2022/12/27 00:05:16;;;;;;;11.27;6.80;;;;;;;1.74;100.00;161025.75;5051961;28;20032;-59
2022/12/27 00:07:42;;;;;;;20.35;7.50;;;;;;;1.72;100.00;161020.38;5050808;28;20503;-59
2022/12/27 00:10:09;;;;;;;20.73;8.00;;;;;;;1.70;100.00;161015.00;5051627;28;20028;-59
2022/12/27 00:12:34;;;;;;;26.02;7.90;;;;;;;1.67;100.00;161008.28;5050102;28;20041;-59
2022/12/27 00:15:00;;;;;;;19.00;6.93;;;;;;;1.62;100.00;160993.53;5051945;28;20021;-59
2022/12/27 00:17:26;;;;;;;13.45;7.97;;;;;;;1.58;100.00;160985.50;5050325;28;20045;-59
2022/12/27 00:19:51;;;;;;;13.77;7.50;;;;;;;1.57;100.00;160982.81;5052451;28;20055;-59
2022/12/27 00:22:16;;;;;;;12.98;6.40;;;;;;;1.54;100.00;160974.75;5050517;28;20059;-59
2022/12/27 00:24:41;;;;;;;15.82;7.47;;;;;;;1.50;100.00;160964.03;5050704;28;20097;-59
2022/12/27 00:27:07;;;;;;;14.07;7.95;;;;;;;1.43;100.00;160946.56;5049967;28;20037;-59
2022/12/27 00:29:32;;;;;;;15.23;8.13;;;;;;;1.39;100.00;160934.50;5050762;28;20028;-61
2022/12/27 00:31:57;;;;;;;12.70;8.32;;;;;;;1.26;100.00;160901.00;5050278;28;20056;-61
2022/12/27 00:34:23;;;;;;;25.55;7.82;;;;;;;1.23;100.00;160894.25;5052096;28;20036;-60
2022/12/27 00:36:48;;;;;;;13.13;7.05;;;;;;;1.19;100.00;160883.53;5050795;28;20041;-60
2022/12/27 00:39:14;;;;;;;18.42;8.63;;;;;;;1.19;100.00;160882.22;5051421;28;20499;-60
2022/12/27 00:41:39;;;;;;;15.43;9.60;;;;;;;1.17;100.00;160876.84;5050606;28;20052;-60
2022/12/27 00:44:04;;;;;;;14.82;7.60;;;;;;;1.15;100.00;160872.81;5051833;28;20086;-60
2022/12/27 00:46:30;;;;;;;14.20;8.00;;;;;;;1.17;100.00;160876.84;5057324;28;20544;-60
2022/12/27 00:48:57;;;;;;;12.98;6.50;;;;;;;1.16;100.00;160875.47;5071706;28;20399;-60
2022/12/27 00:51:23;;;;;;;13.07;8.32;;;;;;;1.15;100.00;160872.81;5070249;28;20040;-59
2022/12/27 00:53:51;;;;;;;14.88;7.28;;;;;;;1.07;100.00;160851.38;5071297;28;20047;-60
2022/12/27 00:56:20;;;;;;;11.38;7.38;;;;;;;1.14;100.00;160870.13;5051168;28;20065;-60
2022/12/27 00:58:46;;;;;;;12.68;7.20;;;;;;;1.16;100.00;160874.16;5051033;28;20033;-60
2022/12/27 01:01:18;;;;;;;14.77;7.97;;;;;;;1.15;100.00;160872.81;5049586;28;20052;-59
2022/12/27 01:03:43;;;;;;;10.15;7.72;;;;;;;1.13;100.00;160866.06;5065672;28;20033;-59
2022/12/27 01:06:15;;;;;;;16.85;7.93;;;;;;;1.07;100.00;160851.38;5069917;28;20435;-59
2022/12/27 01:08:41;;;;;;;12.63;8.57;;;;;;;0.98;100.00;160828.53;5051138;28;20094;-59
2022/12/27 01:11:08;;;;;;;12.48;7.55;;;;;;;1.04;100.00;160843.28;5049758;28;20033;-59
2022/12/27 01:13:34;;;;;;;22.92;9.50;;;;;;;1.07;100.00;160852.69;5051348;28;20044;-59
2022/12/27 01:16:00;;;;;;;17.15;6.80;;;;;;;1.07;100.00;160851.38;5049298;28;20037;-59
2022/12/27 01:18:25;;;;;;;19.55;9.52;;;;;;;1.09;100.00;160856.69;5051334;28;20083;-59
2022/12/27 01:20:50;;;;;;;17.80;8.57;;;;;;;1.12;100.00;160864.75;5050134;28;20080;-59
2022/12/27 01:23:16;;;;;;;9.40;8.38;;;;;;;1.15;100.00;160872.81;5050437;28;20412;-60
2022/12/27 01:25:41;;;;;;;17.23;11.10;;;;;;;1.22;100.00;160891.59;5048915;28;20134;-60
2022/12/27 01:28:06;;;;;;;14.77;8.10;;;;;;;1.28;100.00;160906.31;5050819;28;20028;-60
2022/12/27 01:30:32;;;;;;;17.77;9.80;;;;;;;1.27;100.00;160903.63;5049261;28;20025;-60
2022/12/27 01:32:57;;;;;;;22.33;8.10;;;;;;;1.26;100.00;160902.31;5051031;28;20025;-60
2022/12/27 01:35:23;;;;;;;21.23;8.55;;;;;;;1.36;100.00;160926.47;5049723;28;20016;-59
2022/12/27 01:37:49;;;;;;;26.15;9.40;;;;;;;1.45;100.00;160950.63;5050444;28;20031;-60
2022/12/27 01:40:15;;;;;;;26.02;8.50;;;;;;;1.53;100.00;160972.03;5050600;28;20484;-60
2022/12/27 01:42:52;;;;;;;13.57;8.13;;;;;;;1.54;100.00;160973.41;5049680;28;20103;-59
2022/12/27 01:45:22;;;;;;;16.33;7.97;;;;;;;1.63;100.00;160996.22;5050215;28;20506;-60
2022/12/27 01:48:03;;;;;;;17.50;8.85;;;;;;;1.72;100.00;161020.38;5049730;28;20484;-59
2022/12/27 01:50:33;;;;;;;22.17;10.30;;;;;;;1.76;100.00;161031.09;5049239;28;20028;-59
2022/12/27 01:53:04;;;;;;;16.13;7.47;;;;;;;1.81;100.00;161043.16;5045524;28;20094;-59
2022/12/27 01:55:33;;;;;;;18.50;9.75;;;;;;;1.87;100.00;161059.25;5049093;28;20021;-59
2022/12/27 01:58:07;;;;;;;16.88;7.57;;;;;;;1.96;100.00;161082.09;5050338;28;20151;-58
2022/12/27 02:00:32;;;;;;;23.92;8.55;;;;;;;2.00;100.00;161092.81;5048803;28;20029;-59
2022/12/27 02:02:59;;;;;;;20.95;10.23;;;;;;;2.04;100.00;161104.91;5050651;28;20080;-58
2022/12/27 02:05:25;;;;;;;21.40;8.63;;;;;;;2.09;100.00;161117.00;5049209;28;20028;-58
2022/12/27 02:08:31;;;;;;;15.90;6.90;;;;;;;2.11;100.00;161121.00;5050281;28;20032;-59
2022/12/27 02:10:57;;;;;;;19.77;9.68;;;;;;;2.13;100.00;161127.72;5049123;28;20033;-58
2022/12/27 02:13:22;;;;;;;11.73;7.47;;;;;;;2.14;100.00;161130.41;5050068;28;20021;-58
2022/12/27 02:15:48;;;;;;;19.17;9.45;;;;;;;2.09;100.00;161117.00;5049018;28;20056;-58
2022/12/27 02:18:14;;;;;;;16.85;7.68;;;;;;;2.11;100.00;161122.38;5050104;28;20033;-58
2022/12/27 02:20:52;;;;;;;21.38;9.63;;;;;;;2.11;100.00;161122.38;5048919;28;20447;-58
2022/12/27 02:24:03;;;;;;;18.07;8.90;;;;;;;2.09;100.00;161117.00;5049684;28;20033;-59
2022/12/27 02:26:40;;;;;;;17.13;8.65;;;;;;;2.10;100.00;161119.69;5018289;28;20038;-59
2022/12/27 02:29:23;;;;;;;16.27;8.60;;;;;;;2.08;100.00;161114.31;5039496;28;20032;-59
2022/12/27 02:31:57;;;;;;;15.65;9.40;;;;;;;2.08;100.00;161114.31;5048504;28;20151;-59
2022/12/27 02:34:28;;;;;;;21.25;8.23;;;;;;;2.04;100.00;161103.59;5050159;28;20056;-59
2022/12/27 02:36:59;;;;;;;22.33;10.30;;;;;;;2.08;100.00;161114.31;5051248;28;20499;-59
2022/12/27 02:39:25;;;;;;;16.25;9.57;;;;;;;2.13;100.00;161127.72;5054251;28;20033;-59
2022/12/27 02:53:19;;;;;;;10.45;8.98;;;;;;;2.18;100.00;161141.16;5032747;28;20056;-59
2022/12/27 02:59:19;;;;;;;15.45;8.90;;;;;;;2.33;100.00;161178.75;5053955;28;20035;-58
2022/12/27 03:05:17;;;;;;;23.63;10.40;;;;;;;2.43;100.00;161205.56;5054064;28;20068;-59
2022/12/27 03:07:54;;;;;;;20.85;13.07;;;;;;;2.47;100.00;161214.97;5032350;28;20050;-59
2022/12/27 03:16:13;;;;;;;13.32;9.27;;;;;;;2.48;100.00;161219.03;5051799;28;20095;-58
2022/12/27 03:18:45;;;;;;;10.57;8.43;;;;;;;2.46;100.00;161212.25;5053725;28;20043;-59
2022/12/27 03:26:49;;;;;;;16.67;10.90;;;;;;;2.33;100.00;161178.75;5052537;28;20569;-59
2022/12/27 03:35:10;;;;;;;16.17;9.02;;;;;;;2.29;100.00;161169.34;5053651;28;20139;-59
2022/12/27 03:43:33;;;;;;;20.42;9.93;;;;;;;2.48;100.00;161219.03;5052327;28;20039;-59
2022/12/27 03:49:19;;;;;;;12.20;7.72;;;;;;;2.52;100.00;161228.41;5052395;28;20111;-58
2022/12/27 03:51:54;;;;;;;19.25;9.30;;;;;;;2.57;100.00;161240.50;5051308;28;20576;-58
2022/12/27 03:54:25;;;;;;;21.52;10.60;;;;;;;2.57;100.00;161240.50;5053099;28;20017;-59
2022/12/27 03:56:57;;;;;;;11.95;9.55;;;;;;;2.59;100.00;161245.84;5051484;28;20041;-60
2022/12/27 03:59:23;;;;;;;12.45;7.20;;;;;;;2.63;100.00;161256.59;5051705;28;20029;-60
2022/12/27 04:01:49;;;;;;;7.45;6.72;;;;;;;2.65;100.00;161261.94;5051454;28;20052;-61
2022/12/27 04:04:14;;;;;;;11.65;7.07;;;;;;;2.63;100.00;161257.94;5052694;28;20060;-61
2022/12/27 04:06:39;;;;;;;11.73;7.95;;;;;;;2.59;100.00;161245.84;5050730;28;20037;-60
2022/12/27 04:36:22;;;;;;;29.20;11.15;;;;;;;2.31;100.00;161173.34;5049598;28;20410;-59
2022/12/27 04:38:47;;;;;;;16.15;9.20;;;;;;;2.15;100.00;161133.09;5051293;28;20021;-58
2022/12/27 04:54:55;;;;;;;13.07;10.65;;;;;;;2.21;100.00;161149.19;5051016;28;20072;-59
2022/12/27 04:54:58;;;;;;;14.85;10.43;;;;;;;2.13;100.00;161127.72;5051814;28;20104;-58
2022/12/27 04:57:26;;;;;;;18.42;9.40;;;;;;;2.08;100.00;161114.31;5050205;28;20044;-58
2022/12/27 05:02:35;;;;;;;12.90;9.55;;;;;;;2.00;100.00;161092.81;5049661;28;20111;-58
2022/12/27 05:05:01;;;;;;;26.02;12.45;;;;;;;2.00;100.00;161092.81;5051364;28;20036;-59
2022/12/27 05:15:38;;;;;;;24.23;10.98;;;;;;;1.93;100.00;161074.03;5070056;28;20035;-58
2022/12/27 05:18:03;;;;;;;15.18;10.73;;;;;;;1.98;100.00;161088.81;5070720;28;20032;-59
2022/12/27 05:20:29;;;;;;;26.52;14.10;;;;;;;1.98;100.00;161087.44;5049191;28;20032;-59
2022/12/27 05:25:43;;;;;;;22.98;11.35;;;;;;;1.96;100.00;161082.09;5049450;28;20087;-59
2022/12/27 05:28:10;;;;;;;20.42;11.27;;;;;;;1.94;100.00;161076.72;5050986;28;20045;-61
2022/12/27 05:30:37;;;;;;;17.83;11.73;;;;;;;1.94;100.00;161078.03;5049316;28;20480;-59
2022/12/27 05:33:03;;;;;;;23.77;11.25;;;;;;;1.93;100.00;161074.03;5050736;28;20047;-63
2022/12/27 05:35:30;;;;;;;19.77;12.43;;;;;;;2.00;100.00;161092.81;5049529;28;20017;-61
2022/12/27 05:37:56;;;;;;;23.60;12.88;;;;;;;2.05;100.00;161106.22;5063315;28;20028;-61
2022/12/27 05:40:23;;;;;;;18.75;10.80;;;;;;;2.07;100.00;161111.59;5058351;28;20490;-60
2022/12/27 05:42:48;;;;;;;24.73;11.85;;;;;;;2.05;100.00;161106.22;5048929;28;20511;-61
2022/12/27 05:45:14;;;;;;;18.63;11.07;;;;;;;2.09;100.00;161115.63;5050250;28;20025;-61
2022/12/27 05:47:40;;;;;;;22.25;11.52;;;;;;;2.06;100.00;161108.91;5048840;28;20048;-61
2022/12/27 05:50:06;;;;;;;21.95;11.68;;;;;;;1.98;100.00;161087.44;5049456;28;20479;-61
2022/12/27 05:52:32;;;;;;;19.55;10.98;;;;;;;2.04;100.00;161103.59;5044330;28;20045;-61
2022/12/27 05:54:57;;;;;;;16.95;12.52;;;;;;;2.04;100.00;161103.59;5050721;28;20021;-61
2022/12/27 05:57:22;;;;;;;18.23;11.40;;;;;;;2.05;100.00;161106.22;5048247;28;20053;-61
2022/12/27 05:59:48;;;;;;;15.95;8.98;;;;;;;2.04;100.00;161103.59;5050530;28;20495;-61
2022/12/27 06:02:13;;;;;;;24.10;11.43;;;;;;;2.02;100.00;161099.53;5049804;28;20074;-61
2022/12/27 06:04:38;;;;;;;26.00;10.23;;;;;;;2.03;100.00;161100.91;5067931;28;20027;-60
2022/12/27 06:07:04;;;;;;;20.92;10.38;;;;;;;2.04;100.00;161103.59;5048523;28;20106;-60
2022/12/27 06:09:29;;;;;;;15.30;12.00;;;;;;;2.03;100.00;161100.91;5050023;28;20031;-59
2022/12/27 06:11:54;;;;;;;27.48;12.38;;;;;;;2.03;100.00;161100.91;5048182;28;20044;-59
2022/12/27 06:14:20;;;;;;;34.10;14.00;;;;;;;2.00;100.00;161092.81;5054027;28;20025;-59
2022/12/27 06:16:45;;;;;;;27.70;11.00;;;;;;;2.06;100.00;161108.91;5051120;28;20454;-59
2022/12/27 06:19:11;;;;;;;25.60;10.48;;;;;;;2.04;100.00;161103.59;5060985;28;20020;-59
2022/12/27 06:21:36;;;;;;;15.50;10.05;;;;;;;2.01;100.00;161095.50;5048844;28;20584;-59
2022/12/27 06:24:01;;;;;;;15.20;10.52;;;;;;;2.01;100.00;161095.50;5036612;28;20056;-59
2022/12/27 06:26:28;;;;;;;29.95;13.82;;;;;;;1.94;100.00;161076.72;5046342;28;20040;-58
2022/12/27 06:28:55;;;;;;;17.45;9.95;;;;;;;1.96;100.00;161082.09;5048577;28;20025;-59
2022/12/27 06:31:21;;;;;;;20.15;10.35;;;;;;;1.95;100.00;161079.41;5047471;28;20500;-59
2022/12/27 06:33:48;;;;;;;32.67;11.20;;;;;;;1.98;100.00;161087.44;5046763;28;20628;-59
2022/12/27 06:36:16;;;;;;;23.63;12.07;;;;;;;1.94;100.00;161076.72;5045588;28;20086;-58
2022/12/27 06:38:41;;;;;;;17.08;10.52;;;;;;;1.94;100.00;161076.72;5047645;28;20033;-58
2022/12/27 06:41:09;;;;;;;29.30;11.50;;;;;;;1.93;100.00;161074.03;5027169;28;20084;-58
2022/12/27 06:43:35;;;;;;;27.13;12.32;;;;;;;1.96;100.00;161082.09;5045917;28;20024;-58
2022/12/27 06:46:06;;;;;;;19.73;9.93;;;;;;;1.96;100.00;161082.09;5047026;28;20052;-59
2022/12/27 06:48:32;;;;;;;17.77;10.32;;;;;;;1.95;100.00;161080.75;5048116;28;20118;-59
2022/12/27 06:50:57;;;;;;;17.55;10.25;;;;;;;1.86;100.00;161056.63;5047571;28;20033;-58
2022/12/27 06:53:22;;;;;;;16.17;10.95;;;;;;;1.86;100.00;161057.94;5049560;28;20029;-59
2022/12/27 06:55:48;;;;;;;14.20;10.60;;;;;;;1.83;100.00;161048.53;5046518;28;20052;-58
2022/12/27 06:58:13;;;;;;;20.77;11.88;;;;;;;1.77;100.00;161033.78;5048626;28;20033;-58
2022/12/27 07:00:40;;;;;;;23.17;12.75;;;;;;;1.74;100.00;161025.75;5047672;28;20396;-58
2022/12/27 07:03:05;;;;;;;16.70;11.80;;;;;;;1.71;100.00;161017.69;5047530;28;20114;-58
2022/12/27 07:05:34;;;;;;;17.42;11.93;;;;;;;1.67;100.00;161008.28;5047054;28;20075;-59
2022/12/27 07:07:59;;;;;;;21.40;13.32;;;;;;;1.72;100.00;161020.38;5043714;28;20040;-59
2022/12/27 07:10:24;;;;;;;24.85;12.50;;;;;;;1.69;100.00;161012.31;5046270;28;20029;-57
2022/12/27 07:12:50;;;;;;;20.40;11.30;;;;;;;1.71;100.00;161017.69;5028838;28;20029;-59
2022/12/27 07:15:15;;;;;;;16.15;10.63;;;;;;;1.69;100.00;161012.31;5030735;28;20503;-58
2022/12/27 07:17:40;;;;;;;16.02;9.50;;;;;;;1.70;100.00;161015.00;5045844;28;20458;-59
2022/12/27 07:20:06;;;;;;;25.58;11.70;;;;;;;1.71;100.00;161019.00;5048411;28;20102;-59
2022/12/27 07:22:32;;;;;;;31.65;12.00;;;;;;;1.68;100.00;161010.97;5047688;28;20049;-59
2022/12/27 07:24:57;;;;;;;17.75;10.02;;;;;;;1.72;100.00;161020.38;5051310;28;20030;-59
2022/12/27 07:27:23;;;;;;;25.02;11.32;;;;;;;1.74;100.00;161027.06;5050795;28;20064;-59
2022/12/27 07:29:49;;;;;;;22.80;10.63;;;;;;;1.75;100.00;161028.38;5053361;28;20033;-59
2022/12/27 07:32:14;;;;;;;26.50;9.43;;;;;;;1.71;100.00;161019.00;5050309;28;20041;-59
2022/12/27 07:34:39;;;;;;;24.95;10.60;;;;;;;1.72;100.00;161020.38;5052133;28;20037;-59
2022/12/27 07:37:05;;;;;;;21.10;12.48;;;;;;;1.72;100.00;161020.38;5053349;28;20040;-59
2022/12/27 07:39:30;;;;;;;10.57;7.80;;;;;;;1.64;100.00;160998.91;5051921;28;20553;-59
2022/12/27 07:41:55;;;;;;;19.05;10.52;;;;;;;1.67;100.00;161006.97;5062370;28;20045;-59
2022/12/27 07:44:21;;;;;;;19.15;9.85;;;;;;;1.63;100.00;160996.22;5059470;28;20041;-59
2022/12/27 07:46:46;;;;;;;23.42;10.82;;;;;;;1.62;100.00;160993.53;5058920;28;20097;-59
2022/12/27 07:49:12;;;;;;;19.27;10.45;;;;;;;1.60;100.00;160988.19;5062580;28;20034;-58
2022/12/27 07:51:37;;;;;;;25.60;11.98;;;;;;;1.63;100.00;160996.22;5058832;28;20560;-59
2022/12/27 07:54:02;;;;;;;17.25;10.38;;;;;;;1.63;100.00;160997.56;5052363;28;20021;-59
2022/12/27 07:56:28;;;;;;;21.02;12.45;;;;;;;1.67;100.00;161006.97;5050311;28;20039;-59
2022/12/27 07:58:56;;;;;;;16.52;9.80;;;;;;;1.73;100.00;161024.38;5070630;28;20063;-59
2022/12/27 08:01:23;;;;;;;20.52;11.63;;;;;;;1.76;100.00;161031.09;5068029;28;20079;-57
2022/12/27 08:03:49;;;;;;;14.52;11.63;;;;;;;1.75;100.00;161028.38;5071743;28;20054;-59
2022/12/27 08:06:23;;;;;;;23.75;11.55;;;;;;;1.81;100.00;161043.16;5070299;28;20495;-59
2022/12/27 08:08:50;;;;;;;19.10;10.38;;;;;;;1.83;100.00;161049.88;5071005;28;20246;-58
2022/12/27 08:11:15;;;;;;;21.08;11.23;;;;;;;1.86;100.00;161056.63;5036873;28;20045;-59
2022/12/27 08:13:40;;;;;;;15.80;9.98;;;;;;;1.88;100.00;161061.94;5037373;28;20392;-59
2022/12/27 08:16:06;;;;;;;42.13;14.68;;;;;;;1.93;100.00;161075.41;5041671;28;20047;-59
2022/12/27 08:18:32;;;;;;;20.45;8.95;;;;;;;1.92;100.00;161071.34;5053035;28;20430;-58
2022/12/27 08:20:57;;;;;;;18.00;9.13;;;;;;;1.90;100.00;161068.66;5050325;28;20037;-58
2022/12/27 08:23:22;;;;;;;29.35;10.95;;;;;;;1.92;100.00;161071.34;5051844;28;20502;-59
2022/12/27 08:25:48;;;;;;;16.35;8.90;;;;;;;1.97;100.00;161086.13;5056066;28;20041;-59
2022/12/27 08:28:16;;;;;;;17.35;10.80;;;;;;;2.02;100.00;161099.53;5052341;28;20464;-59
2022/12/27 08:30:43;;;;;;;19.65;10.52;;;;;;;2.09;100.00;161117.00;5060259;28;20037;-59
2022/12/27 08:33:09;;;;;;;17.05;9.23;;;;;;;2.09;100.00;161117.00;5056390;28;20044;-59
2022/12/27 08:35:52;;;;;;;27.48;12.85;;;;;;;2.17;100.00;161138.47;5036754;28;20047;-58
2022/12/27 08:38:18;;;;;;;16.70;10.15;;;;;;;2.28;100.00;161165.28;5051301;28;20029;-59
2022/12/27 08:40:44;;;;;;;15.35;8.63;;;;;;;2.33;100.00;161178.75;5049892;28;20025;-58
2022/12/27 08:43:10;;;;;;;11.73;9.20;;;;;;;2.36;100.00;161186.75;5051271;28;20064;-58
2022/12/27 08:45:37;;;;;;;20.00;8.00;;;;;;;2.47;100.00;161216.31;5050944;28;20039;-59
2022/12/27 08:48:03;;;;;;;14.13;8.82;;;;;;;2.56;100.00;161237.81;5050904;28;20580;-59
2022/12/27 08:50:29;;;;;;;17.48;10.40;;;;;;;2.59;100.00;161247.22;5050132;28;20024;-58
2022/12/27 08:52:59;;;;;;;17.85;9.10;;;;;;;2.59;100.00;161245.84;5051424;28;20017;-59
2022/12/27 08:55:28;;;;;;;35.13;10.77;;;;;;;2.64;100.00;161259.31;5052238;28;20036;-54
2022/12/27 08:57:57;;;;;;;18.33;9.35;;;;;;;2.67;100.00;161267.31;5071317;28;20051;-59
2022/12/27 09:00:24;;;;;;;17.63;9.27;;;;;;;2.89;100.00;161323.72;5071049;28;20029;-59
2022/12/27 09:02:49;;;;;;;14.88;8.55;;;;;;;3.29;100.00;161428.50;5069517;28;20056;-59
2022/12/27 09:05:15;;;;;;;14.07;8.15;;;;;;;3.29;100.00;161428.50;5062857;28;20407;-59
2022/12/27 09:07:40;;;;;;;13.65;7.90;;;;;;;3.76;100.00;161552.06;5049886;28;20041;-59
2022/12/27 09:10:06;;;;;;;15.82;6.38;;;;;;;3.60;100.00;161510.44;5050534;28;20028;-59
2022/12/27 09:12:32;;;;;;;15.00;7.55;;;;;;;3.58;100.00;161503.72;5049757;28;20102;-59
2022/12/27 09:14:58;;;;;;;14.55;7.05;;;;;;;3.61;100.00;161511.81;5043917;28;20032;-59
2022/12/27 09:17:24;;;;;;;18.92;9.07;;;;;;;3.76;100.00;161550.75;5046514;28;20447;-59
2022/12/27 09:19:49;;;;;;;16.20;8.98;;;;;;;3.98;100.00;161608.53;5050704;28;20033;-59
2022/12/27 09:22:14;;;;;;;16.63;8.82;;;;;;;4.17;100.00;161656.91;5049381;28;20048;-59
2022/12/27 09:24:40;;;;;;;12.65;8.65;;;;;;;4.40;100.00;161718.75;5052817;28;20384;-59
2022/12/27 09:27:05;;;;;;;13.68;6.82;;;;;;;4.58;100.00;161764.44;5050335;28;20040;-59
2022/12/27 09:29:30;;;;;;;10.13;7.47;;;;;;;4.66;100.00;161784.63;5050381;28;20032;-59
2022/12/27 09:31:56;;;;;;;9.82;7.20;;;;;;;4.99;100.00;161872.03;5049595;28;20049;-59
2022/12/27 09:34:21;;;;;;;16.23;9.77;;;;;;;5.08;100.00;161896.25;5049920;28;20078;-59
2022/12/27 09:36:46;;;;;;;12.60;8.98;;;;;;;5.46;100.00;161993.09;5047999;28;20048;-59
2022/12/27 09:39:12;;;;;;;12.13;7.40;;;;;;;5.86;100.00;162098.00;5050661;28;20033;-58
2022/12/27 09:42:01;;;;;;;12.13;7.57;;;;;;;6.08;100.00;162154.56;5064483;28;20045;-59
2022/12/27 09:44:47;;;;;;;16.90;8.93;;;;;;;5.91;100.00;162111.50;5039466;28;20083;-59
2022/12/27 09:47:37;;;;;;;33.10;9.15;;;;;;;6.05;100.00;162146.53;5046864;28;20649;-59
2022/12/27 09:50:10;;;;;;;14.88;8.32;;;;;;;6.01;100.00;162137.09;5048692;28;20039;-58
2022/12/27 09:52:42;;;;;;;19.98;9.02;;;;;;;5.84;100.00;162093.97;5023918;28;20041;-59
2022/12/27 09:55:40;;;;;;;18.77;10.88;;;;;;;5.68;100.00;162050.91;5036801;28;20494;-59
2022/12/27 09:58:33;;;;;;;11.88;7.18;;;;;;;5.87;100.00;162100.72;5023940;28;20095;-59
2022/12/27 10:01:00;;;;;;;13.25;8.85;;;;;;;5.90;100.00;162107.41;5033722;28;20037;-59
2022/12/27 10:03:28;;;;;;;11.23;9.20;;;;;;;6.05;100.00;162146.53;5049670;28;20044;-58
2022/12/27 10:06:11;;;;;;;15.10;10.68;;;;;;;6.01;100.00;162138.44;5048655;28;20049;-58
2022/12/27 10:08:49;;;;;;;22.08;12.35;;;;;;;6.01;100.00;162138.44;5049433;28;20025;-59
2022/12/27 10:11:37;;;;;;;16.30;10.82;;;;;;;5.84;100.00;162093.97;5045009;28;20080;-59
2022/12/27 10:14:40;;;;;;;14.38;10.40;;;;;;;5.37;100.00;161971.56;5041621;28;20032;-59
2022/12/27 10:17:53;;;;;;;23.13;12.07;;;;;;;5.22;100.00;161931.19;5039049;28;20570;-59
2022/12/27 10:20:46;;;;;;;18.17;12.70;;;;;;;4.98;100.00;161868.00;5044236;28;20043;-59
2022/12/27 10:23:17;;;;;;;18.23;12.25;;;;;;;5.00;100.00;161873.34;5048625;28;20044;-59
2022/12/27 10:25:44;;;;;;;20.25;13.20;;;;;;;5.03;100.00;161882.75;5050747;28;20136;-59
2022/12/27 10:28:15;;;;;;;24.13;15.82;;;;;;;4.83;100.00;161830.34;5049752;28;20116;-59
2022/12/27 10:30:41;;;;;;;19.70;13.02;;;;;;;4.67;100.00;161787.31;5051731;28;20032;-59
2022/12/27 10:33:20;;;;;;;23.08;13.75;;;;;;;4.55;100.00;161756.38;5055323;28;20018;-59
2022/12/27 10:35:46;;;;;;;;;;;;;;;4.49;100.00;161740.25;5037743;28;20042;-58
2022/12/27 10:38:12;;;;;;;14.80;12.65;;;;;;;4.39;100.00;161716.06;5042189;28;19909;-59
2022/12/27 10:40:49;;;;;;;24.83;17.05;;;;;;;4.34;100.00;161702.63;5046322;28;20391;-58
2022/12/27 10:43:18;;;;;;;29.20;17.70;;;;;;;4.34;100.00;161702.63;5044078;28;20029;-59
2022/12/27 10:45:44;;;;;;;21.45;14.80;;;;;;;4.45;100.00;161732.19;5048298;28;20033;-59
2022/12/27 10:48:19;;;;;;;25.80;15.55;;;;;;;4.48;100.00;161737.56;5063493;28;20051;-59
2022/12/27 10:51:06;;;;;;;25.65;18.33;;;;;;;4.65;100.00;161783.28;5066195;28;20117;-58
2022/12/27 10:53:33;;;;;;;21.80;15.32;;;;;;;4.70;100.00;161796.72;5068176;28;20031;-58
2022/12/27 10:56:12;;;;;;;23.50;12.25;;;;;;;4.71;100.00;161799.41;5045898;28;20039;-58
2022/12/27 10:58:49;;;;;;;29.40;13.82;;;;;;;4.69;100.00;161794.03;5053479;28;20117;-58
2022/12/27 11:01:28;;;;;;;23.60;14.75;;;;;;;4.80;100.00;161820.94;5052913;28;20041;-59
2022/12/27 11:04:11;;;;;;;23.30;14.52;;;;;;;4.72;100.00;161802.13;5053157;28;20044;-59
2022/12/27 11:06:37;;;;;;;24.92;14.45;;;;;;;4.70;100.00;161795.34;5052234;28;20057;-59
2022/12/27 11:09:28;;;;;;;36.53;15.68;;;;;;;4.63;100.00;161776.53;5045674;28;20031;-58
2022/12/27 11:12:13;;;;;;;19.55;13.55;;;;;;;4.51;100.00;161745.59;5034512;28;20051;-59
2022/12/27 11:14:39;;;;;;;24.70;15.38;;;;;;;4.45;100.00;161732.19;5036944;28;20026;-58
2022/12/27 11:17:13;;;;;;;21.80;14.30;;;;;;;4.33;100.00;161699.94;5049501;28;20044;-58
2022/12/27 11:19:45;;;;;;;16.35;13.25;;;;;;;4.36;100.00;161707.97;5068562;28;20067;-59
2022/12/27 11:22:11;;;;;;;23.88;14.45;;;;;;;4.39;100.00;161716.06;5064634;28;20396;-58
2022/12/27 11:24:44;;;;;;;26.05;16.60;;;;;;;4.36;100.00;161707.97;5052922;28;20025;-59
2022/12/27 11:27:21;;;;;;;17.20;14.77;;;;;;;4.47;100.00;161734.88;5052200;28;20044;-59
2022/12/27 11:29:46;;;;;;;18.33;14.65;;;;;;;4.54;100.00;161753.69;5057261;28;20044;-58
2022/12/27 11:32:12;;;;;;;19.42;14.40;;;;;;;4.63;100.00;161777.91;5049677;28;20492;-58
2022/12/27 11:34:44;;;;;;;27.33;16.38;;;;;;;4.76;100.00;161811.53;5053211;28;20195;-58
2022/12/27 11:37:14;;;;;;;21.55;15.02;;;;;;;4.90;100.00;161847.81;5051546;28;20124;-58
2022/12/27 11:39:44;;;;;;;21.95;14.82;;;;;;;5.05;100.00;161886.81;5052233;28;20386;-58
2022/12/27 11:42:37;;;;;;;24.88;15.10;;;;;;;5.36;100.00;161967.53;5051150;28;20044;-58
2022/12/27 11:45:14;;;;;;;19.27;13.10;;;;;;;5.50;100.00;162003.81;5052538;28;20132;-58
2022/12/27 11:48:04;;;;;;;17.38;11.35;;;;;;;5.71;100.00;162060.34;5051202;28;20045;-58
2022/12/27 11:50:47;;;;;;;26.15;13.43;;;;;;;5.94;100.00;162119.53;5051163;28;20029;-59
2022/12/27 11:53:27;;;;;;;18.60;13.23;;;;;;;6.21;100.00;162189.59;5052278;28;20483;-58
2022/12/27 11:56:18;;;;;;;16.17;10.43;;;;;;;6.47;100.00;162256.88;5051041;28;20044;-59
2022/12/27 11:58:49;;;;;;;13.77;10.05;;;;;;;6.47;100.00;162256.88;5052374;28;20111;-59
2022/12/27 12:01:58;;;;;;;22.98;10.75;;;;;;;6.56;100.00;162279.75;5050580;28;20407;-58
2022/12/27 12:05:08;;;;;;;10.50;9.25;;;;;;;6.61;100.00;162294.56;5051850;28;20040;-58
2022/12/27 12:07:49;;;;;;;30.42;13.63;;;;;;;6.79;100.00;162340.38;5042250;28;20401;-59
2022/12/27 12:10:50;;;;;;;15.55;10.57;;;;;;;6.86;100.00;162359.22;5051812;28;20029;-58
2022/12/27 12:13:34;;;;;;;19.17;10.75;;;;;;;7.03;100.00;162402.31;5050399;28;20080;-58
2022/12/27 12:16:40;;;;;;;14.25;9.00;;;;;;;6.92;100.00;162374.03;5051061;28;20040;-59
2022/12/27 12:19:18;;;;;;;18.23;9.10;;;;;;;6.92;100.00;162375.38;5052528;28;20029;-59
2022/12/27 12:21:46;;;;;;;11.45;9.48;;;;;;;6.85;100.00;162355.19;5046783;28;20049;-58
2022/12/27 12:24:41;;;;;;;13.00;9.98;;;;;;;6.73;100.00;162324.22;5046436;28;20025;-59
2022/12/27 12:27:21;;;;;;;12.18;8.63;;;;;;;6.57;100.00;162283.81;5050412;28;20044;-59
2022/12/27 12:30:21;;;;;;;19.05;10.23;;;;;;;6.59;100.00;162289.19;5052156;28;20033;-59
2022/12/27 12:33:01;;;;;;;17.58;9.95;;;;;;;6.62;100.00;162297.28;5050797;28;20037;-59
2022/12/27 12:35:52;;;;;;;17.45;9.98;;;;;;;6.57;100.00;162283.81;5051381;28;20191;-58
2022/12/27 12:38:28;;;;;;;17.35;10.52;;;;;;;6.46;100.00;162255.56;5051685;28;20017;-59
2022/12/27 12:41:19;;;;;;;9.82;7.97;;;;;;;6.36;100.00;162228.63;5049609;28;20041;-59
2022/12/27 12:44:02;;;;;;;19.55;9.82;;;;;;;6.42;100.00;162244.75;5051105;28;20029;-59
2022/12/27 12:46:55;;;;;;;13.27;9.50;;;;;;;6.39;100.00;162235.34;5050082;28;20037;-59
2022/12/27 12:49:40;;;;;;;14.98;8.13;;;;;;;6.46;100.00;162254.19;5052112;28;20430;-59
2022/12/27 12:52:42;;;;;;;15.93;8.57;;;;;;;6.57;100.00;162283.81;5050248;28;20044;-59
2022/12/27 12:55:43;;;;;;;12.75;6.97;;;;;;;6.63;100.00;162299.97;5051272;28;20025;-59
2022/12/27 12:58:38;;;;;;;18.45;9.20;;;;;;;6.59;100.00;162287.84;5047288;28;20849;-59
2022/12/27 13:01:24;;;;;;;12.43;9.00;;;;;;;6.61;100.00;162294.56;5050040;28;20041;-59
2022/12/27 13:04:23;;;;;;;12.30;7.35;;;;;;;6.58;100.00;162285.16;5031621;28;20038;-58
2022/12/27 13:07:22;;;;;;;41.40;11.27;;;;;;;6.46;100.00;162254.19;5043669;28;20408;-59
2022/12/27 13:10:16;;;;;;;19.38;8.27;;;;;;;6.42;100.00;162243.44;5051128;28;20024;-58